createdAt,value
2022-12-05T00:01:23.817Z,69.17
2022-12-05T00:03:51.492Z,67.40
2022-12-05T00:06:18.412Z,71.47
2022-12-05T00:08:45.511Z,72.77
2022-12-05T00:11:13.377Z,75.77
2022-12-05T00:13:40.901Z,63.30
2022-12-05T00:16:08.564Z,69.60
2022-12-05T00:18:35.484Z,64.37
2022-12-05T00:21:02.002Z,75.27
2022-12-05T00:23:28.507Z,74.77
2022-12-05T00:25:55.038Z,76.20
2022-12-05T00:28:21.528Z,77.43
2022-12-05T00:30:48.040Z,72.93
2022-12-05T00:33:14.587Z,71.07
2022-12-05T00:35:41.083Z,72.80
2022-12-05T00:38:07.554Z,76.50
2022-12-05T00:40:35.663Z,79.53
2022-12-05T00:43:02.169Z,76.70
2022-12-05T00:45:28.704Z,79.90
2022-12-05T00:47:55.269Z,76.53
2022-12-05T00:50:21.781Z,80.47
2022-12-05T00:52:48.469Z,77.63
2022-12-05T00:55:15.139Z,79.07
2022-12-05T00:57:41.651Z,79.60
2022-12-05T01:00:08.513Z,79.97
2022-12-05T01:02:35.038Z,79.60
2022-12-05T01:05:01.564Z,76.37
2022-12-05T01:07:28.168Z,78.63
2022-12-05T01:09:54.805Z,77.37
2022-12-05T01:12:21.557Z,80.67
2022-12-05T01:14:48.070Z,80.87
2022-12-05T01:17:14.539Z,80.47
2022-12-05T01:19:41.171Z,77.63
2022-12-05T01:22:07.634Z,76.40
2022-12-05T01:24:34.202Z,74.80
2022-12-05T01:27:00.709Z,84.17
2022-12-05T01:29:27.326Z,83.17
2022-12-05T01:31:54.220Z,77.40
2022-12-05T01:34:21.082Z,73.97
2022-12-05T01:36:47.694Z,71.67
2022-12-05T01:39:14.796Z,73.97
2022-12-05T01:41:42.495Z,76.10
2022-12-05T01:44:11.775Z,82.73
2022-12-05T01:46:45.809Z,74.87
2022-12-05T01:49:20.901Z,72.60
2022-12-05T01:51:48.625Z,77.50
2022-12-05T01:54:15.781Z,76.10
2022-12-05T01:56:44.527Z,77.27
2022-12-05T01:59:11.711Z,79.53
2022-12-05T02:01:38.840Z,78.30
2022-12-05T02:04:05.853Z,80.55
2022-12-05T02:06:32.816Z,75.60
2022-12-05T02:08:59.646Z,70.47
2022-12-05T02:11:27.592Z,76.20
2022-12-05T02:14:09.272Z,74.20
2022-12-05T02:16:44.939Z,68.43
2022-12-05T02:19:23.359Z,71.57
2022-12-05T02:22:08.738Z,64.40
2022-12-05T02:24:35.226Z,69.03
2022-12-05T02:27:17.783Z,68.93
2022-12-05T02:29:47.244Z,64.93
2022-12-05T02:32:34.226Z,67.20
2022-12-05T02:35:06.496Z,63.07
2022-12-05T02:37:39.086Z,67.50
2022-12-05T02:40:11.067Z,64.07
2022-12-05T02:42:40.364Z,63.10
2022-12-05T02:45:09.970Z,61.30
2022-12-05T02:47:38.814Z,59.60
2022-12-05T02:50:06.833Z,61.93
2022-12-05T02:52:34.761Z,62.53
2022-12-05T02:55:01.533Z,59.67
2022-12-05T02:57:28.065Z,57.13
2022-12-05T02:59:54.661Z,61.20
2022-12-05T03:02:24.096Z,60.60
2022-12-05T03:04:50.582Z,59.13
2022-12-05T03:07:19.051Z,55.00
2022-12-05T03:09:51.496Z,55.77
2022-12-05T03:12:23.372Z,60.63
2022-12-05T03:14:57.199Z,54.97
2022-12-05T03:17:26.053Z,53.70
2022-12-05T03:20:06.462Z,58.47
2022-12-05T03:22:36.625Z,51.03
2022-12-05T03:25:03.906Z,51.93
2022-12-05T03:27:49.117Z,49.73
2022-12-05T03:30:20.160Z,49.33
2022-12-05T03:32:46.696Z,51.50
2022-12-05T03:35:22.817Z,50.00
2022-12-05T03:38:01.269Z,48.70
2022-12-05T03:40:28.201Z,49.50
2022-12-05T03:43:10.686Z,51.47
2022-12-05T03:45:56.245Z,52.77
2022-12-05T03:48:30.480Z,49.43
2022-12-05T03:50:58.459Z,46.97
2022-12-05T03:53:31.410Z,45.90
2022-12-05T03:56:02.228Z,49.97
2022-12-05T03:58:49.821Z,45.40
2022-12-05T04:01:18.199Z,45.67
2022-12-05T04:03:47.438Z,49.33
2022-12-05T04:06:34.918Z,44.50
2022-12-05T04:09:04.285Z,44.40
2022-12-05T04:11:33.161Z,49.17
2022-12-05T04:14:06.809Z,45.40
2022-12-05T04:17:03.763Z,47.50
2022-12-05T04:20:17.727Z,49.07
2022-12-05T04:22:44.563Z,48.10
2022-12-05T04:25:31.304Z,44.70
2022-12-05T04:28:21.530Z,46.33
2022-12-05T04:30:51.317Z,47.13
2022-12-05T04:33:23.606Z,47.63
2022-12-05T04:36:02.719Z,46.63
2022-12-05T04:38:47.795Z,46.90
2022-12-05T04:41:16.970Z,46.07
2022-12-05T04:43:45.066Z,48.20
2022-12-05T04:46:13.508Z,44.47
2022-12-05T04:48:41.796Z,46.37
2022-12-05T04:51:09.798Z,51.23
2022-12-05T04:53:36.410Z,50.13
2022-12-05T04:56:04.397Z,49.03
2022-12-05T04:58:31.795Z,46.33
2022-12-05T05:00:58.280Z,52.10
2022-12-05T05:03:27.572Z,47.67
2022-12-05T05:05:54.828Z,46.67
2022-12-05T05:08:23.014Z,50.03
2022-12-05T05:10:55.838Z,42.27
2022-12-05T05:13:22.329Z,49.83
2022-12-05T05:15:48.921Z,47.33
2022-12-05T05:18:15.493Z,44.67
2022-12-05T05:20:42.028Z,45.00
2022-12-05T05:23:08.614Z,44.50
2022-12-05T05:25:35.122Z,47.30
2022-12-05T05:28:01.715Z,47.80
2022-12-05T05:30:28.308Z,46.37
2022-12-05T05:32:54.818Z,45.53
2022-12-05T05:35:21.746Z,48.07
2022-12-05T05:37:48.371Z,44.87
2022-12-05T05:40:14.971Z,43.20
2022-12-05T05:42:42.588Z,48.13
2022-12-05T05:45:09.570Z,47.83
2022-12-05T05:47:36.081Z,43.27
2022-12-05T05:50:02.636Z,48.23
2022-12-05T05:52:29.121Z,49.03
2022-12-05T05:54:55.651Z,42.50
2022-12-05T05:57:22.141Z,52.63
2022-12-05T05:59:48.625Z,44.40
2022-12-05T06:02:15.139Z,44.67
2022-12-05T06:04:41.636Z,50.37
2022-12-05T06:07:08.217Z,45.67
2022-12-05T06:09:34.779Z,47.73
2022-12-05T06:12:01.332Z,51.33
2022-12-05T06:14:28.069Z,43.60
2022-12-05T06:16:54.650Z,49.27
2022-12-05T06:19:21.240Z,50.27
2022-12-05T06:21:48.888Z,47.07
2022-12-05T06:24:15.343Z,46.70
2022-12-05T06:26:42.035Z,49.03
2022-12-05T06:29:08.539Z,46.90
2022-12-05T06:31:35.507Z,45.80
2022-12-05T06:34:05.262Z,47.93
2022-12-05T06:36:31.810Z,44.50
2022-12-05T06:38:58.763Z,49.23
2022-12-05T06:41:25.385Z,47.27
2022-12-05T06:43:56.213Z,46.03
2022-12-05T06:46:26.112Z,51.50
2022-12-05T06:48:53.833Z,55.23
2022-12-05T06:51:20.510Z,52.90
2022-12-05T06:53:47.173Z,52.27
2022-12-05T06:56:14.908Z,47.60
2022-12-05T06:58:42.151Z,51.37
2022-12-05T07:01:33.936Z,47.93
2022-12-05T07:04:00.736Z,49.30
2022-12-05T07:06:27.684Z,54.93
2022-12-05T07:08:54.230Z,47.77
2022-12-05T07:11:21.113Z,49.93
2022-12-05T07:13:47.621Z,57.17
2022-12-05T07:16:14.209Z,54.87
2022-12-05T07:18:40.883Z,55.97
2022-12-05T07:21:12.967Z,56.63
2022-12-05T07:23:40.584Z,52.93
2022-12-05T07:26:08.170Z,55.90
2022-12-05T07:28:34.680Z,53.53
2022-12-05T07:31:01.584Z,56.83
2022-12-05T07:33:28.445Z,58.40
2022-12-05T07:36:05.796Z,56.23
2022-12-05T07:38:32.408Z,54.70
2022-12-05T07:40:58.962Z,59.20
2022-12-05T07:43:25.595Z,58.67
2022-12-05T07:45:52.102Z,59.27
2022-12-05T07:48:19.139Z,60.53
2022-12-05T07:50:45.963Z,66.17
2022-12-05T07:53:12.483Z,56.33
2022-12-05T07:55:39.254Z,59.80
2022-12-05T07:58:05.951Z,62.40
2022-12-05T08:00:32.495Z,62.20
2022-12-05T08:02:59.128Z,63.63
2022-12-05T08:05:25.751Z,60.20
2022-12-05T08:07:52.332Z,61.10
2022-12-05T08:10:18.906Z,60.80
2022-12-05T08:12:45.425Z,65.80
2022-12-05T08:15:11.992Z,63.23
2022-12-05T08:17:38.787Z,66.47
2022-12-05T08:20:05.614Z,58.43
2022-12-05T08:22:32.089Z,62.83
2022-12-05T08:24:58.653Z,71.53
2022-12-05T08:27:25.200Z,62.07
2022-12-05T08:29:53.507Z,67.20
2022-12-05T08:32:20.035Z,63.97
2022-12-05T08:34:46.535Z,64.50
2022-12-05T08:37:13.041Z,71.30
2022-12-05T08:39:39.546Z,65.07
2022-12-05T08:42:06.061Z,69.10
2022-12-05T08:44:32.545Z,72.10
2022-12-05T08:46:59.123Z,68.50
2022-12-05T08:49:25.605Z,69.73
2022-12-05T08:51:52.088Z,72.07
2022-12-05T08:54:18.715Z,77.67
2022-12-05T08:56:45.255Z,73.57
2022-12-05T08:59:11.886Z,76.23
2022-12-05T09:01:39.358Z,74.67
2022-12-05T09:04:06.869Z,75.03
2022-12-05T09:06:34.816Z,74.93
2022-12-05T09:09:06.932Z,73.63
2022-12-05T09:11:34.839Z,73.27
2022-12-05T09:14:01.954Z,73.27
2022-12-05T09:16:35.183Z,70.27
2022-12-05T09:19:07.116Z,76.20
2022-12-05T09:21:33.696Z,74.40
2022-12-05T09:24:00.499Z,73.53
2022-12-05T09:26:27.862Z,72.93
2022-12-05T09:28:54.373Z,79.80
2022-12-05T09:31:22.329Z,80.00
2022-12-05T09:33:49.568Z,79.30
2022-12-05T09:36:19.021Z,77.90
2022-12-05T09:38:45.684Z,77.20
2022-12-05T09:41:48.587Z,74.90
2022-12-05T09:44:26.933Z,74.07
2022-12-05T09:47:11.852Z,79.33
2022-12-05T09:49:42.310Z,73.63
2022-12-05T09:52:16.001Z,70.90
2022-12-05T09:54:42.483Z,73.90
2022-12-05T09:57:10.391Z,66.47
2022-12-05T09:59:36.921Z,77.80
2022-12-05T10:02:11.653Z,73.53
2022-12-05T10:04:39.140Z,76.90
2022-12-05T10:07:11.896Z,78.47
2022-12-05T10:09:56.357Z,77.33
2022-12-05T10:12:31.721Z,73.03
2022-12-05T10:15:17.102Z,79.20
2022-12-05T10:18:01.003Z,84.37
2022-12-05T10:20:34.340Z,80.43
2022-12-05T10:23:03.799Z,76.87
2022-12-05T10:25:32.196Z,78.97
2022-12-05T10:28:00.592Z,78.93
2022-12-05T10:30:29.424Z,81.70
2022-12-05T10:33:01.801Z,81.10
2022-12-05T10:35:34.932Z,75.87
2022-12-05T10:38:06.772Z,77.80
2022-12-05T10:40:37.766Z,76.27
2022-12-05T10:43:08.898Z,77.93
2022-12-05T10:45:43.442Z,79.13
2022-12-05T10:48:11.847Z,81.20
2022-12-05T10:50:38.766Z,83.67
2022-12-05T10:53:06.224Z,79.00
2022-12-05T10:55:59.929Z,87.87
2022-12-05T10:58:30.005Z,81.33
2022-12-05T11:00:57.349Z,81.60
2022-12-05T11:03:32.945Z,83.23
2022-12-05T11:06:00.996Z,78.30
2022-12-05T11:08:56.040Z,82.60
2022-12-05T11:11:23.353Z,81.87
2022-12-05T11:13:57.875Z,80.50
2022-12-05T11:16:25.473Z,84.60
2022-12-05T11:18:53.221Z,83.17
2022-12-05T11:21:20.821Z,77.43
2022-12-05T11:23:47.866Z,80.60
2022-12-05T11:26:34.704Z,85.13
2022-12-05T11:29:01.613Z,78.53
2022-12-05T11:31:29.800Z,74.27
2022-12-05T11:34:11.757Z,83.97
2022-12-05T11:36:43.694Z,79.23
2022-12-05T11:39:12.724Z,78.30
2022-12-05T11:41:45.475Z,77.30
2022-12-05T11:44:17.880Z,92.43
2022-12-05T11:46:53.801Z,79.00
2022-12-05T11:49:29.435Z,85.80
2022-12-05T11:52:04.264Z,89.67
2022-12-05T11:57:34.466Z,92.83
2022-12-05T12:00:01.057Z,79.57
2022-12-05T12:02:27.681Z,70.23
2022-12-05T12:05:13.072Z,90.07
2022-12-05T12:07:45.950Z,81.37
2022-12-05T12:10:12.576Z,91.20
2022-12-05T12:12:48.469Z,88.77
2022-12-05T12:15:18.320Z,89.53
2022-12-05T12:17:50.134Z,75.23
2022-12-05T12:20:16.640Z,81.40
2022-12-05T12:22:55.461Z,72.77
2022-12-05T12:25:27.949Z,85.03
2022-12-05T12:28:20.555Z,88.90
2022-12-05T12:30:47.071Z,77.07
2022-12-05T12:33:16.538Z,77.30
2022-12-05T12:35:53.496Z,85.50
2022-12-05T12:38:23.063Z,72.93
2022-12-05T12:41:07.977Z,88.03
2022-12-05T12:43:54.637Z,73.13
2022-12-05T12:46:30.578Z,83.63
2022-12-05T12:49:02.893Z,81.80
2022-12-05T12:51:31.198Z,87.33
2022-12-05T12:53:57.799Z,79.37
2022-12-05T12:56:24.307Z,69.93
2022-12-05T12:58:54.033Z,91.80
2022-12-05T13:01:23.416Z,78.20
2022-12-05T13:03:55.349Z,80.00
2022-12-05T13:06:28.703Z,74.07
2022-12-05T13:08:57.474Z,81.40
2022-12-05T13:11:24.900Z,85.23
2022-12-05T13:13:53.478Z,82.90
2022-12-05T13:16:32.067Z,76.93
2022-12-05T13:18:58.796Z,75.67
2022-12-05T13:21:26.083Z,75.70
2022-12-05T13:23:55.834Z,81.80
2022-12-05T13:26:23.946Z,79.23
2022-12-05T13:28:53.397Z,80.60
2022-12-05T13:31:34.237Z,84.03
2022-12-05T13:34:00.825Z,78.43
2022-12-05T13:36:45.830Z,76.47
2022-12-05T13:39:33.996Z,96.17
2022-12-05T13:42:15.946Z,80.33
2022-12-05T13:44:44.804Z,89.07
2022-12-05T13:47:23.902Z,86.33
2022-12-05T13:49:55.992Z,76.53
2022-12-05T13:52:26.311Z,69.03
2022-12-05T13:55:06.591Z,73.20
2022-12-05T13:57:53.382Z,75.43
2022-12-05T14:00:23.108Z,93.70
2022-12-05T14:02:51.375Z,74.00
2022-12-05T14:05:20.756Z,97.13
2022-12-05T14:07:50.092Z,80.93
2022-12-05T14:10:20.714Z,82.90
2022-12-05T14:12:51.160Z,94.03
2022-12-05T14:15:28.909Z,79.70
2022-12-05T14:18:14.393Z,80.30
2022-12-05T14:20:48.381Z,74.17
2022-12-05T14:23:21.036Z,83.47
2022-12-05T14:25:57.682Z,85.37
2022-12-05T14:28:41.063Z,68.13
2022-12-05T14:31:07.575Z,76.67
2022-12-05T14:33:34.245Z,66.47
2022-12-05T14:36:08.333Z,83.93
2022-12-05T14:38:36.697Z,71.97
2022-12-05T14:41:17.412Z,70.00
2022-12-05T14:43:44.155Z,67.03
2022-12-05T14:46:22.821Z,72.67
2022-12-05T14:48:49.625Z,72.90
2022-12-05T14:51:31.500Z,72.00
2022-12-05T14:54:04.745Z,58.87
2022-12-05T14:56:33.040Z,59.40
2022-12-05T14:58:59.535Z,63.60
2022-12-05T15:01:27.798Z,57.67
2022-12-05T15:04:00.272Z,66.67
2022-12-05T15:06:27.101Z,65.07
2022-12-05T15:09:04.582Z,54.90
2022-12-05T15:11:41.917Z,57.53
2022-12-05T15:14:08.360Z,56.03
2022-12-05T15:16:38.497Z,61.30
2022-12-05T15:19:07.285Z,58.30
2022-12-05T15:21:36.448Z,48.77
2022-12-05T15:24:06.459Z,59.10
2022-12-05T15:26:48.440Z,58.20
2022-12-05T15:29:17.523Z,53.70
2022-12-05T15:31:48.587Z,62.47
2022-12-05T15:34:35.340Z,56.77
2022-12-05T15:37:10.710Z,68.03
2022-12-05T15:40:09.498Z,61.83
2022-12-05T15:42:35.986Z,58.27
2022-12-05T15:45:12.273Z,56.43
2022-12-05T15:47:39.122Z,53.30
2022-12-05T15:50:06.057Z,59.80
2022-12-05T15:52:41.957Z,55.50
2022-12-05T15:55:12.613Z,53.37
2022-12-05T15:57:47.468Z,59.07
2022-12-05T16:00:15.997Z,53.33
2022-12-05T16:02:53.566Z,53.30
2022-12-05T16:05:32.980Z,59.83
2022-12-05T16:08:01.545Z,54.70
2022-12-05T16:10:29.848Z,66.07
2022-12-05T16:13:02.520Z,56.63
2022-12-05T16:15:29.051Z,53.07
2022-12-05T16:17:57.434Z,54.23
2022-12-05T16:20:34.823Z,52.90
2022-12-05T16:23:04.497Z,50.73
2022-12-05T16:25:37.025Z,47.53
2022-12-05T16:28:11.220Z,52.67
2022-12-05T16:30:38.073Z,57.20
2022-12-05T16:33:06.388Z,47.57
2022-12-05T16:35:37.718Z,49.73
2022-12-05T16:38:05.351Z,46.53
2022-12-05T16:40:31.872Z,47.03
2022-12-05T16:43:05.525Z,43.70
2022-12-05T16:45:42.655Z,43.87
2022-12-05T16:48:25.819Z,44.97
2022-12-05T16:50:53.805Z,39.43
2022-12-05T16:53:22.061Z,47.17
2022-12-05T16:55:49.176Z,39.40
2022-12-05T16:58:19.884Z,45.00
2022-12-05T17:00:46.386Z,45.63
2022-12-05T17:03:33.510Z,42.67
2022-12-05T17:06:00.156Z,33.73
2022-12-05T17:08:26.768Z,36.80
2022-12-05T17:10:53.474Z,35.97
2022-12-05T17:13:20.148Z,35.43
2022-12-05T17:15:46.718Z,30.77
2022-12-05T17:18:14.157Z,33.97
2022-12-05T17:20:41.471Z,35.50
2022-12-05T17:23:11.109Z,31.27
2022-12-05T17:25:38.513Z,29.43
2022-12-05T17:28:04.984Z,32.37
2022-12-05T17:30:34.245Z,32.03
2022-12-05T17:33:01.643Z,32.13
2022-12-05T17:35:28.793Z,30.53
2022-12-05T17:37:55.318Z,29.30
2022-12-05T17:40:21.848Z,31.53
2022-12-05T17:42:48.709Z,29.50
2022-12-05T17:45:16.104Z,31.17
2022-12-05T17:47:43.269Z,32.80
2022-12-05T17:50:14.233Z,32.10
2022-12-05T17:52:40.914Z,33.07
2022-12-05T17:55:12.304Z,28.07
2022-12-05T17:57:38.807Z,26.80
2022-12-05T18:00:05.741Z,26.23
2022-12-05T18:02:34.165Z,25.83
2022-12-05T18:05:00.924Z,26.33
2022-12-05T18:07:27.597Z,29.07
2022-12-05T18:09:54.130Z,28.40
2022-12-05T18:12:20.606Z,27.17
2022-12-05T18:14:47.232Z,25.13
2022-12-05T18:17:13.703Z,25.23
2022-12-05T18:19:40.201Z,26.53
2022-12-05T18:22:06.724Z,24.17
2022-12-05T18:24:33.254Z,26.23
2022-12-05T18:26:59.773Z,24.47
2022-12-05T18:29:26.293Z,26.40
2022-12-05T18:31:52.825Z,22.73
2022-12-05T18:34:19.356Z,22.43
2022-12-05T18:36:45.916Z,21.83
2022-12-05T18:39:14.600Z,27.10
2022-12-05T18:41:41.915Z,20.80
2022-12-05T18:44:09.918Z,22.17
2022-12-05T18:46:37.316Z,20.97
2022-12-05T18:49:05.567Z,22.20
2022-12-05T18:51:32.111Z,19.83
2022-12-05T18:53:58.660Z,20.30
2022-12-05T18:56:26.928Z,19.73
2022-12-05T18:58:54.870Z,20.83
2022-12-05T19:01:21.540Z,21.10
2022-12-05T19:03:49.106Z,19.73
2022-12-05T19:06:16.961Z,20.67
2022-12-05T19:08:47.057Z,24.50
2022-12-05T19:11:14.678Z,17.13
2022-12-05T19:13:41.265Z,19.73
2022-12-05T19:16:09.155Z,20.37
2022-12-05T19:18:35.880Z,21.37
2022-12-05T19:21:02.749Z,17.63
2022-12-05T19:23:31.912Z,19.50
2022-12-05T19:26:02.344Z,16.40
2022-12-05T19:28:29.141Z,16.67
2022-12-05T19:31:02.926Z,17.10
2022-12-05T19:33:36.675Z,16.73
2022-12-05T19:36:07.848Z,15.87
2022-12-05T19:38:34.967Z,17.30
2022-12-05T19:41:02.272Z,16.00
2022-12-05T19:43:29.956Z,15.47
2022-12-05T19:45:57.053Z,15.27
2022-12-05T19:48:24.150Z,15.67
2022-12-05T19:50:54.621Z,13.37
2022-12-05T19:53:21.221Z,13.70
2022-12-05T19:55:47.703Z,16.20
2022-12-05T19:58:14.235Z,17.92
2022-12-05T20:00:41.219Z,15.47
2022-12-05T20:03:11.970Z,15.53
2022-12-05T20:05:38.987Z,16.77
2022-12-05T20:08:05.593Z,15.63
2022-12-05T20:10:33.568Z,15.03
2022-12-05T20:13:02.649Z,14.17
2022-12-05T20:15:32.730Z,14.70
2022-12-05T20:17:59.366Z,14.27
2022-12-05T20:20:25.975Z,14.93
2022-12-05T20:22:53.645Z,17.77
2022-12-05T20:25:20.381Z,16.07
2022-12-05T20:27:46.989Z,16.37
2022-12-05T20:30:13.536Z,14.83
2022-12-05T20:32:40.765Z,16.00
2022-12-05T20:35:07.775Z,15.40
2022-12-05T20:37:35.749Z,19.47
2022-12-05T20:40:02.441Z,18.70
2022-12-05T20:42:29.107Z,18.20
2022-12-05T20:44:55.654Z,14.93
2022-12-05T20:47:22.263Z,15.57
2022-12-05T20:49:48.917Z,18.13
2022-12-05T20:52:15.476Z,20.60
2022-12-05T20:54:42.199Z,17.30
2022-12-05T20:57:08.841Z,18.97
2022-12-05T20:59:35.357Z,19.43
2022-12-05T21:02:01.981Z,19.70
2022-12-05T21:04:28.792Z,16.30
2022-12-05T21:06:56.263Z,14.70
2022-12-05T21:09:30.370Z,14.63
2022-12-05T21:11:58.011Z,14.47
2022-12-05T21:14:24.696Z,15.60
2022-12-05T21:16:53.179Z,15.93
2022-12-05T21:19:20.667Z,16.93
2022-12-05T21:21:49.105Z,28.53
2022-12-05T21:24:15.846Z,29.63
2022-12-05T21:26:42.575Z,20.73
2022-12-05T21:29:10.519Z,20.67
2022-12-05T21:31:39.473Z,20.30
2022-12-05T21:34:08.134Z,20.87
2022-12-05T21:36:35.575Z,14.67
2022-12-05T21:39:02.211Z,15.37
2022-12-05T21:41:28.772Z,15.93
2022-12-05T21:43:56.021Z,15.07
2022-12-05T21:46:26.055Z,13.80
2022-12-05T21:48:53.086Z,13.90
2022-12-05T21:51:20.217Z,16.07
2022-12-05T21:53:46.836Z,16.07
2022-12-05T21:56:15.964Z,16.80
2022-12-05T21:58:43.393Z,18.23
2022-12-05T22:01:17.499Z,14.30
2022-12-05T22:03:44.634Z,15.43
2022-12-05T22:06:12.578Z,14.03
2022-12-05T22:08:39.186Z,14.27
2022-12-05T22:11:05.766Z,14.33
2022-12-05T22:13:32.703Z,15.93
2022-12-05T22:15:59.714Z,12.87
2022-12-05T22:18:26.651Z,13.13
2022-12-05T22:20:57.196Z,13.03
2022-12-05T22:23:23.909Z,13.97
2022-12-05T22:26:00.801Z,12.03
2022-12-05T22:28:28.319Z,12.10
2022-12-05T22:30:55.739Z,12.50
2022-12-05T22:33:22.452Z,12.87
2022-12-05T22:35:52.612Z,12.23
2022-12-05T22:38:19.519Z,12.13
2022-12-05T22:40:46.131Z,12.30
2022-12-05T22:43:13.037Z,13.30
2022-12-05T22:45:39.868Z,12.33
2022-12-05T22:48:06.354Z,12.27
2022-12-05T22:50:33.263Z,13.47
2022-12-05T22:53:00.090Z,14.67
2022-12-05T22:55:26.733Z,11.10
2022-12-05T22:57:53.595Z,12.03
2022-12-05T23:00:20.591Z,10.77
2022-12-05T23:02:47.167Z,11.43
2022-12-05T23:05:13.782Z,11.37
2022-12-05T23:07:41.143Z,10.70
2022-12-05T23:10:08.112Z,11.50
2022-12-05T23:12:34.823Z,11.40
2022-12-05T23:15:01.332Z,11.03
2022-12-05T23:17:27.819Z,11.60
2022-12-05T23:19:54.340Z,10.57
2022-12-05T23:22:20.836Z,11.50
2022-12-05T23:24:47.378Z,10.40
2022-12-05T23:27:13.913Z,11.57
2022-12-05T23:29:40.429Z,11.07
2022-12-05T23:32:06.977Z,11.00
2022-12-05T23:34:33.493Z,10.27
2022-12-05T23:37:01.564Z,12.13
2022-12-05T23:39:28.058Z,11.10
2022-12-05T23:41:54.567Z,10.43
2022-12-05T23:44:21.426Z,10.40
2022-12-05T23:46:47.987Z,10.60
2022-12-05T23:49:14.582Z,9.87
2022-12-05T23:51:41.126Z,10.70
2022-12-05T23:54:09.592Z,10.40
2022-12-05T23:56:36.257Z,10.10
2022-12-05T23:59:03.888Z,9.10
